Pagina principale
METAR-TAF:

METAR-TAF

Aeroporti :

Aeroporto di Rieti

Rieti, Italia

latitudine: 42-25N, longitudine: 012-51E, altezza: 389 m

Osservazione

Il bollettino è stato emesso 7 ore e 39 minuti fa, alle 17:50 UTC
Vento 5 kt da sud-ovest
Temperature 27°C
Umidità 62%
Pressione 1015 hPa
Visibilità 10 km o più
Poco nuvoloso ad un'altezza di 4500 ft, Cumulonembo.

METAR: LIQN 141750Z 22005KT 9999 FEW045CB 27/19 Q1015

Ora: 03:29 (01:29 UTC)


TAF: mancante

Osservazioni e previsioni meteorologiche di più di 4000 aeroporti (messaggi METAR e TAF).

Le stazioni disponibili sono rappresentate dai dischi gialli e rossi sulla carta.

Puntare il mouse per vedere il nome della stazione.

Clicca sopra per visualizzare le osservazioni e previsioni meteorologiche.

Per cambiare la mappa : fare clic sui pulsanti verdi con una croce nera per ingrandire, il pulsante verde con un trattino per diminuire, o sulla freccia verde per le mappe adiacenti.


METAR-TAF: